Terminal Aerodrome Forecast
Issued by NWS

Home | Current Version | Previous Version | Text Only | Print | Product List | Glossary Off
Versions: 1 2 3 4 5 6 7 8 9 10 11 12 13 14

114
FTUS42 KMHX 090541
TAFISO
TAF
KISO 090541Z 0906/1006 00000KT 5SM BR SCT100
     FM090700 00000KT 2SM BR SKC
     FM091000 26005KT P6SM SCT100
     FM091400 27011G19KT P6SM BKN050
      AMD LTD TO CLD VIS AND WIND=

USA.gov is the U.S. government's official web portal to all federal, state and local government web resources and services.